sensor_id;sensor_type;location;lat;lon;timestamp;temperature;humidity
71237;DHT22;58984;51.960;5.582;2022-11-25T00:02:15;15.20;54.60
71237;DHT22;58984;51.960;5.582;2022-11-25T00:04:41;15.20;54.70
71237;DHT22;58984;51.960;5.582;2022-11-25T00:07:06;15.20;54.90
71237;DHT22;58984;51.960;5.582;2022-11-25T00:09:32;15.20;54.80
71237;DHT22;58984;51.960;5.582;2022-11-25T00:11:58;15.20;54.90
71237;DHT22;58984;51.960;5.582;2022-11-25T00:14:23;15.20;54.80
71237;DHT22;58984;51.960;5.582;2022-11-25T00:16:49;15.20;54.80
71237;DHT22;58984;51.960;5.582;2022-11-25T00:19:15;15.20;54.90
71237;DHT22;58984;51.960;5.582;2022-11-25T00:21:41;15.20;55.00
71237;DHT22;58984;51.960;5.582;2022-11-25T00:24:07;15.20;55.00
71237;DHT22;58984;51.960;5.582;2022-11-25T00:26:34;15.20;55.20
71237;DHT22;58984;51.960;5.582;2022-11-25T00:29:02;15.20;55.20
71237;DHT22;58984;51.960;5.582;2022-11-25T00:31:34;15.20;55.20
71237;DHT22;58984;51.960;5.582;2022-11-25T00:34:00;15.10;55.20
71237;DHT22;58984;51.960;5.582;2022-11-25T00:36:29;15.20;55.30
71237;DHT22;58984;51.960;5.582;2022-11-25T00:38:57;15.20;55.20
71237;DHT22;58984;51.960;5.582;2022-11-25T00:41:23;15.20;55.30
71237;DHT22;58984;51.960;5.582;2022-11-25T00:44:22;15.20;55.30
71237;DHT22;58984;51.960;5.582;2022-11-25T00:47:10;15.20;55.30
71237;DHT22;58984;51.960;5.582;2022-11-25T00:49:37;15.10;55.30
71237;DHT22;58984;51.960;5.582;2022-11-25T00:52:03;15.20;55.40
71237;DHT22;58984;51.960;5.582;2022-11-25T00:54:29;15.20;55.60
71237;DHT22;58984;51.960;5.582;2022-11-25T00:56:56;15.20;55.60
71237;DHT22;58984;51.960;5.582;2022-11-25T00:59:21;15.10;55.50
71237;DHT22;58984;51.960;5.582;2022-11-25T01:01:47;15.10;55.60
71237;DHT22;58984;51.960;5.582;2022-11-25T01:04:13;15.20;55.60
71237;DHT22;58984;51.960;5.582;2022-11-25T01:06:39;15.20;55.70
71237;DHT22;58984;51.960;5.582;2022-11-25T01:09:06;15.10;55.60
71237;DHT22;58984;51.960;5.582;2022-11-25T01:11:32;15.10;55.60
71237;DHT22;58984;51.960;5.582;2022-11-25T01:13:58;15.20;55.60
71237;DHT22;58984;51.960;5.582;2022-11-25T01:16:24;15.10;55.60
71237;DHT22;58984;51.960;5.582;2022-11-25T01:18:50;15.20;55.80
71237;DHT22;58984;51.960;5.582;2022-11-25T01:21:21;15.20;55.80
71237;DHT22;58984;51.960;5.582;2022-11-25T01:23:48;15.10;55.70
71237;DHT22;58984;51.960;5.582;2022-11-25T01:26:17;15.10;55.80
71237;DHT22;58984;51.960;5.582;2022-11-25T01:28:43;15.10;55.80
71237;DHT22;58984;51.960;5.582;2022-11-25T01:31:17;15.10;55.80
71237;DHT22;58984;51.960;5.582;2022-11-25T01:33:44;15.10;55.70
71237;DHT22;58984;51.960;5.582;2022-11-25T01:36:12;15.10;55.80
71237;DHT22;58984;51.960;5.582;2022-11-25T01:38:39;15.10;55.90
71237;DHT22;58984;51.960;5.582;2022-11-25T01:41:06;15.10;55.90
71237;DHT22;58984;51.960;5.582;2022-11-25T01:43:32;15.20;56.00
71237;DHT22;58984;51.960;5.582;2022-11-25T01:46:08;15.20;55.90
71237;DHT22;58984;51.960;5.582;2022-11-25T01:48:48;15.10;55.90
71237;DHT22;58984;51.960;5.582;2022-11-25T01:51:22;15.10;55.90
71237;DHT22;58984;51.960;5.582;2022-11-25T01:53:49;15.10;55.80
71237;DHT22;58984;51.960;5.582;2022-11-25T01:56:15;15.10;55.90
71237;DHT22;58984;51.960;5.582;2022-11-25T01:58:42;15.10;55.90
71237;DHT22;58984;51.960;5.582;2022-11-25T02:01:09;15.10;55.90
71237;DHT22;58984;51.960;5.582;2022-11-25T02:03:39;15.10;56.40
71237;DHT22;58984;51.960;5.582;2022-11-25T02:06:30;15.10;56.10
71237;DHT22;58984;51.960;5.582;2022-11-25T02:09:15;15.10;56.30
71237;DHT22;58984;51.960;5.582;2022-11-25T02:11:43;15.10;56.20
71237;DHT22;58984;51.960;5.582;2022-11-25T02:14:12;15.10;56.20
71237;DHT22;58984;51.960;5.582;2022-11-25T02:16:39;15.10;56.30
71237;DHT22;58984;51.960;5.582;2022-11-25T02:19:06;15.10;56.20
71237;DHT22;58984;51.960;5.582;2022-11-25T02:21:39;15.10;56.30
71237;DHT22;58984;51.960;5.582;2022-11-25T02:24:19;15.20;56.30
71237;DHT22;58984;51.960;5.582;2022-11-25T02:26:46;15.10;55.90
71237;DHT22;58984;51.960;5.582;2022-11-25T02:29:12;15.20;56.10
71237;DHT22;58984;51.960;5.582;2022-11-25T02:31:38;15.10;56.20
71237;DHT22;58984;51.960;5.582;2022-11-25T02:34:03;15.10;56.10
71237;DHT22;58984;51.960;5.582;2022-11-25T02:36:29;15.10;56.30
71237;DHT22;58984;51.960;5.582;2022-11-25T02:38:56;15.10;56.30
71237;DHT22;58984;51.960;5.582;2022-11-25T02:41:32;15.10;56.30
71237;DHT22;58984;51.960;5.582;2022-11-25T02:44:00;15.10;56.30
71237;DHT22;58984;51.960;5.582;2022-11-25T02:46:27;15.10;56.30
71237;DHT22;58984;51.960;5.582;2022-11-25T02:48:54;15.10;56.30
71237;DHT22;58984;51.960;5.582;2022-11-25T02:51:22;15.10;56.40
71237;DHT22;58984;51.960;5.582;2022-11-25T02:53:49;15.10;56.50
71237;DHT22;58984;51.960;5.582;2022-11-25T02:56:18;15.10;56.40
71237;DHT22;58984;51.960;5.582;2022-11-25T02:58:44;15.10;56.30
71237;DHT22;58984;51.960;5.582;2022-11-25T03:01:10;15.10;56.40
71237;DHT22;58984;51.960;5.582;2022-11-25T03:03:36;15.10;56.30
71237;DHT22;58984;51.960;5.582;2022-11-25T03:06:02;15.10;56.30
71237;DHT22;58984;51.960;5.582;2022-11-25T03:08:28;15.10;56.60
71237;DHT22;58984;51.960;5.582;2022-11-25T03:10:53;15.20;56.60
71237;DHT22;58984;51.960;5.582;2022-11-25T03:13:19;15.20;56.50
71237;DHT22;58984;51.960;5.582;2022-11-25T03:15:45;15.20;56.30
71237;DHT22;58984;51.960;5.582;2022-11-25T03:18:11;15.20;56.30
71237;DHT22;58984;51.960;5.582;2022-11-25T03:20:37;15.20;56.40
71237;DHT22;58984;51.960;5.582;2022-11-25T03:23:04;15.20;56.50
71237;DHT22;58984;51.960;5.582;2022-11-25T03:25:30;15.20;56.50
71237;DHT22;58984;51.960;5.582;2022-11-25T03:27:56;15.20;56.80
71237;DHT22;58984;51.960;5.582;2022-11-25T03:30:23;15.20;56.80
71237;DHT22;58984;51.960;5.582;2022-11-25T03:32:49;15.20;56.60
71237;DHT22;58984;51.960;5.582;2022-11-25T03:35:15;15.20;57.40
71237;DHT22;58984;51.960;5.582;2022-11-25T03:37:41;15.20;56.70
71237;DHT22;58984;51.960;5.582;2022-11-25T03:40:07;15.20;56.60
71237;DHT22;58984;51.960;5.582;2022-11-25T03:42:33;15.20;56.80
71237;DHT22;58984;51.960;5.582;2022-11-25T03:44:59;15.20;56.90
71237;DHT22;58984;51.960;5.582;2022-11-25T03:47:25;15.20;56.80
71237;DHT22;58984;51.960;5.582;2022-11-25T03:49:51;15.20;56.70
71237;DHT22;58984;51.960;5.582;2022-11-25T03:52:17;15.20;56.70
71237;DHT22;58984;51.960;5.582;2022-11-25T03:54:42;15.20;56.80
71237;DHT22;58984;51.960;5.582;2022-11-25T03:57:08;15.20;56.80
71237;DHT22;58984;51.960;5.582;2022-11-25T03:59:34;15.20;56.90
71237;DHT22;58984;51.960;5.582;2022-11-25T04:02:00;15.20;56.80
71237;DHT22;58984;51.960;5.582;2022-11-25T04:04:25;15.20;56.90
71237;DHT22;58984;51.960;5.582;2022-11-25T04:06:51;15.20;56.80
71237;DHT22;58984;51.960;5.582;2022-11-25T04:09:17;15.20;56.80
71237;DHT22;58984;51.960;5.582;2022-11-25T04:11:42;15.20;56.80
71237;DHT22;58984;51.960;5.582;2022-11-25T04:14:26;15.20;56.80
71237;DHT22;58984;51.960;5.582;2022-11-25T04:16:52;15.20;56.80
71237;DHT22;58984;51.960;5.582;2022-11-25T04:19:18;15.20;56.90
71237;DHT22;58984;51.960;5.582;2022-11-25T04:21:43;15.20;57.40
71237;DHT22;58984;51.960;5.582;2022-11-25T04:24:09;15.20;56.90
71237;DHT22;58984;51.960;5.582;2022-11-25T04:26:34;15.20;56.90
71237;DHT22;58984;51.960;5.582;2022-11-25T04:29:00;15.20;56.90
71237;DHT22;58984;51.960;5.582;2022-11-25T04:31:26;15.20;56.80
71237;DHT22;58984;51.960;5.582;2022-11-25T04:33:51;15.20;56.80
71237;DHT22;58984;51.960;5.582;2022-11-25T04:36:17;15.20;56.80
71237;DHT22;58984;51.960;5.582;2022-11-25T04:38:43;15.20;56.80
71237;DHT22;58984;51.960;5.582;2022-11-25T04:41:08;15.20;56.80
71237;DHT22;58984;51.960;5.582;2022-11-25T04:43:34;15.20;56.80
71237;DHT22;58984;51.960;5.582;2022-11-25T04:46:00;15.20;56.80
71237;DHT22;58984;51.960;5.582;2022-11-25T04:48:26;15.20;56.80
71237;DHT22;58984;51.960;5.582;2022-11-25T04:50:53;15.20;56.70
71237;DHT22;58984;51.960;5.582;2022-11-25T04:53:19;15.10;56.60
71237;DHT22;58984;51.960;5.582;2022-11-25T04:55:44;15.10;56.60
71237;DHT22;58984;51.960;5.582;2022-11-25T04:58:10;15.20;56.80
71237;DHT22;58984;51.960;5.582;2022-11-25T05:00:36;15.10;56.70
71237;DHT22;58984;51.960;5.582;2022-11-25T05:03:02;15.10;56.80
71237;DHT22;58984;51.960;5.582;2022-11-25T05:05:28;15.10;56.80
71237;DHT22;58984;51.960;5.582;2022-11-25T05:07:53;15.20;57.00
71237;DHT22;58984;51.960;5.582;2022-11-25T05:10:19;15.10;57.00
71237;DHT22;58984;51.960;5.582;2022-11-25T05:12:44;15.10;57.00
71237;DHT22;58984;51.960;5.582;2022-11-25T05:15:10;15.20;57.10
71237;DHT22;58984;51.960;5.582;2022-11-25T05:17:36;15.10;57.20
71237;DHT22;58984;51.960;5.582;2022-11-25T05:20:03;15.20;57.20
71237;DHT22;58984;51.960;5.582;2022-11-25T05:22:31;15.20;57.10
71237;DHT22;58984;51.960;5.582;2022-11-25T05:24:56;15.10;57.70
71237;DHT22;58984;51.960;5.582;2022-11-25T05:27:23;15.20;57.10
71237;DHT22;58984;51.960;5.582;2022-11-25T05:29:49;15.20;57.10
71237;DHT22;58984;51.960;5.582;2022-11-25T05:32:15;15.20;57.10
71237;DHT22;58984;51.960;5.582;2022-11-25T05:34:41;15.10;57.00
71237;DHT22;58984;51.960;5.582;2022-11-25T05:37:08;15.10;57.10
71237;DHT22;58984;51.960;5.582;2022-11-25T05:39:34;15.10;57.20
71237;DHT22;58984;51.960;5.582;2022-11-25T05:41:59;15.10;57.10
71237;DHT22;58984;51.960;5.582;2022-11-25T05:44:25;15.10;57.00
71237;DHT22;58984;51.960;5.582;2022-11-25T05:46:51;15.10;57.00
71237;DHT22;58984;51.960;5.582;2022-11-25T05:49:17;15.10;57.10
71237;DHT22;58984;51.960;5.582;2022-11-25T05:51:43;15.10;57.00
71237;DHT22;58984;51.960;5.582;2022-11-25T05:54:09;15.10;57.00
71237;DHT22;58984;51.960;5.582;2022-11-25T05:56:35;15.10;57.00
71237;DHT22;58984;51.960;5.582;2022-11-25T05:59:01;15.10;57.00
71237;DHT22;58984;51.960;5.582;2022-11-25T06:01:27;15.10;57.00
71237;DHT22;58984;51.960;5.582;2022-11-25T06:03:53;15.10;57.00
71237;DHT22;58984;51.960;5.582;2022-11-25T06:06:19;15.10;57.00
71237;DHT22;58984;51.960;5.582;2022-11-25T06:08:44;15.10;57.00
71237;DHT22;58984;51.960;5.582;2022-11-25T06:11:12;15.10;57.00
71237;DHT22;58984;51.960;5.582;2022-11-25T06:13:39;15.10;57.00
71237;DHT22;58984;51.960;5.582;2022-11-25T06:16:11;15.10;56.90
71237;DHT22;58984;51.960;5.582;2022-11-25T06:18:37;15.00;56.80
71237;DHT22;58984;51.960;5.582;2022-11-25T06:21:04;15.10;56.90
71237;DHT22;58984;51.960;5.582;2022-11-25T06:23:30;15.10;56.90
71237;DHT22;58984;51.960;5.582;2022-11-25T06:28:38;15.00;56.90
71237;DHT22;58984;51.960;5.582;2022-11-25T06:31:10;15.10;56.80
71237;DHT22;58984;51.960;5.582;2022-11-25T06:33:36;15.00;56.50
71237;DHT22;58984;51.960;5.582;2022-11-25T06:36:07;15.00;56.70
71237;DHT22;58984;51.960;5.582;2022-11-25T06:38:33;15.00;56.80
71237;DHT22;58984;51.960;5.582;2022-11-25T06:41:04;15.00;56.90
71237;DHT22;58984;51.960;5.582;2022-11-25T06:43:30;14.90;56.80
71237;DHT22;58984;51.960;5.582;2022-11-25T06:46:11;15.00;56.80
71237;DHT22;58984;51.960;5.582;2022-11-25T06:48:37;14.90;56.80
71237;DHT22;58984;51.960;5.582;2022-11-25T06:51:05;15.00;56.80
71237;DHT22;58984;51.960;5.582;2022-11-25T06:53:31;14.90;56.80
71237;DHT22;58984;51.960;5.582;2022-11-25T06:58:26;14.90;56.80
71237;DHT22;58984;51.960;5.582;2022-11-25T07:00:59;14.90;56.70
71237;DHT22;58984;51.960;5.582;2022-11-25T07:03:25;14.90;56.80
71237;DHT22;58984;51.960;5.582;2022-11-25T07:05:50;14.90;56.60
71237;DHT22;58984;51.960;5.582;2022-11-25T07:08:16;14.90;56.70
71237;DHT22;58984;51.960;5.582;2022-11-25T07:10:41;14.90;56.70
71237;DHT22;58984;51.960;5.582;2022-11-25T07:13:07;14.90;56.60
71237;DHT22;58984;51.960;5.582;2022-11-25T07:15:33;14.90;56.70
71237;DHT22;58984;51.960;5.582;2022-11-25T07:17:59;14.90;56.70
71237;DHT22;58984;51.960;5.582;2022-11-25T07:20:24;14.90;56.60
71237;DHT22;58984;51.960;5.582;2022-11-25T07:22:52;14.90;56.60
71237;DHT22;58984;51.960;5.582;2022-11-25T07:25:17;14.90;56.60
71237;DHT22;58984;51.960;5.582;2022-11-25T07:27:43;14.80;56.50
71237;DHT22;58984;51.960;5.582;2022-11-25T07:30:09;14.80;56.50
71237;DHT22;58984;51.960;5.582;2022-11-25T07:32:35;14.90;56.60
71237;DHT22;58984;51.960;5.582;2022-11-25T07:35:00;14.80;56.50
71237;DHT22;58984;51.960;5.582;2022-11-25T07:37:26;14.80;56.50
71237;DHT22;58984;51.960;5.582;2022-11-25T07:39:52;14.80;56.50
71237;DHT22;58984;51.960;5.582;2022-11-25T07:42:17;14.90;56.60
71237;DHT22;58984;51.960;5.582;2022-11-25T07:44:43;14.80;56.50
71237;DHT22;58984;51.960;5.582;2022-11-25T07:47:08;14.80;56.60
71237;DHT22;58984;51.960;5.582;2022-11-25T07:49:34;14.80;56.50
71237;DHT22;58984;51.960;5.582;2022-11-25T07:52:00;14.80;56.50
71237;DHT22;58984;51.960;5.582;2022-11-25T07:54:27;14.80;56.60
71237;DHT22;58984;51.960;5.582;2022-11-25T07:56:52;14.70;56.50
71237;DHT22;58984;51.960;5.582;2022-11-25T07:59:20;14.70;56.50
71237;DHT22;58984;51.960;5.582;2022-11-25T08:01:48;14.70;56.60
71237;DHT22;58984;51.960;5.582;2022-11-25T08:04:14;14.70;56.60
71237;DHT22;58984;51.960;5.582;2022-11-25T08:06:42;14.70;56.60
71237;DHT22;58984;51.960;5.582;2022-11-25T08:09:10;14.70;56.60
71237;DHT22;58984;51.960;5.582;2022-11-25T08:11:36;14.70;56.70
71237;DHT22;58984;51.960;5.582;2022-11-25T08:14:02;14.70;56.60
71237;DHT22;58984;51.960;5.582;2022-11-25T08:16:28;14.70;56.60
71237;DHT22;58984;51.960;5.582;2022-11-25T08:18:59;14.70;56.60
71237;DHT22;58984;51.960;5.582;2022-11-25T08:21:25;14.70;56.70
71237;DHT22;58984;51.960;5.582;2022-11-25T08:23:52;14.70;56.70
71237;DHT22;58984;51.960;5.582;2022-11-25T08:26:28;14.70;56.60
71237;DHT22;58984;51.960;5.582;2022-11-25T08:28:55;14.60;56.60
71237;DHT22;58984;51.960;5.582;2022-11-25T08:31:26;14.70;56.60
71237;DHT22;58984;51.960;5.582;2022-11-25T08:33:56;14.70;56.70
71237;DHT22;58984;51.960;5.582;2022-11-25T08:36:22;14.70;56.70
71237;DHT22;58984;51.960;5.582;2022-11-25T08:38:51;14.70;56.70
71237;DHT22;58984;51.960;5.582;2022-11-25T08:41:26;14.70;56.70
71237;DHT22;58984;51.960;5.582;2022-11-25T08:43:52;14.70;56.70
71237;DHT22;58984;51.960;5.582;2022-11-25T08:46:21;14.70;56.70
71237;DHT22;58984;51.960;5.582;2022-11-25T08:48:47;14.70;56.70
71237;DHT22;58984;51.960;5.582;2022-11-25T08:51:15;14.70;56.70
71237;DHT22;58984;51.960;5.582;2022-11-25T08:53:42;14.70;56.70
71237;DHT22;58984;51.960;5.582;2022-11-25T08:56:09;14.70;56.70
71237;DHT22;58984;51.960;5.582;2022-11-25T08:58:35;14.70;56.70
71237;DHT22;58984;51.960;5.582;2022-11-25T09:01:03;14.70;56.80
71237;DHT22;58984;51.960;5.582;2022-11-25T09:03:35;14.70;56.90
71237;DHT22;58984;51.960;5.582;2022-11-25T09:06:03;14.70;56.90
71237;DHT22;58984;51.960;5.582;2022-11-25T09:08:29;14.70;57.00
71237;DHT22;58984;51.960;5.582;2022-11-25T09:10:55;14.70;57.00
71237;DHT22;58984;51.960;5.582;2022-11-25T09:13:21;14.70;57.00
71237;DHT22;58984;51.960;5.582;2022-11-25T09:15:47;14.70;57.10
71237;DHT22;58984;51.960;5.582;2022-11-25T09:18:12;14.70;57.20
71237;DHT22;58984;51.960;5.582;2022-11-25T09:20:40;14.80;57.40
71237;DHT22;58984;51.960;5.582;2022-11-25T09:23:07;14.80;57.30
71237;DHT22;58984;51.960;5.582;2022-11-25T09:25:33;14.80;57.30
71237;DHT22;58984;51.960;5.582;2022-11-25T09:27:59;14.80;57.30
71237;DHT22;58984;51.960;5.582;2022-11-25T09:30:25;14.90;57.90
71237;DHT22;58984;51.960;5.582;2022-11-25T09:32:53;14.90;57.30
71237;DHT22;58984;51.960;5.582;2022-11-25T09:35:20;15.00;57.40
71237;DHT22;58984;51.960;5.582;2022-11-25T09:37:46;15.00;57.40
71237;DHT22;58984;51.960;5.582;2022-11-25T09:40:46;15.00;57.30
71237;DHT22;58984;51.960;5.582;2022-11-25T09:54:43;15.30;57.30
71237;DHT22;58984;51.960;5.582;2022-11-25T09:57:30;15.30;57.40
71237;DHT22;58984;51.960;5.582;2022-11-25T10:00:10;15.40;57.30
71237;DHT22;58984;51.960;5.582;2022-11-25T10:05:33;15.50;57.40
71237;DHT22;58984;51.960;5.582;2022-11-25T10:08:17;15.60;57.50
71237;DHT22;58984;51.960;5.582;2022-11-25T10:14:02;15.70;57.50
71237;DHT22;58984;51.960;5.582;2022-11-25T10:16:55;15.80;57.30
71237;DHT22;58984;51.960;5.582;2022-11-25T10:19:42;15.80;57.40
71237;DHT22;58984;51.960;5.582;2022-11-25T10:22:33;15.90;57.50
71237;DHT22;58984;51.960;5.582;2022-11-25T10:25:18;15.90;57.50
71237;DHT22;58984;51.960;5.582;2022-11-25T10:28:04;16.00;57.70
71237;DHT22;58984;51.960;5.582;2022-11-25T10:41:13;16.40;57.60
71237;DHT22;58984;51.960;5.582;2022-11-25T10:43:41;16.40;57.70
71237;DHT22;58984;51.960;5.582;2022-11-25T10:51:35;16.60;57.80
71237;DHT22;58984;51.960;5.582;2022-11-25T10:54:18;16.70;57.60
71237;DHT22;58984;51.960;5.582;2022-11-25T10:56:53;16.70;57.60
71237;DHT22;58984;51.960;5.582;2022-11-25T11:01:53;16.90;57.80
71237;DHT22;58984;51.960;5.582;2022-11-25T11:04:29;17.00;57.80
71237;DHT22;58984;51.960;5.582;2022-11-25T11:07:07;17.10;57.90
71237;DHT22;58984;51.960;5.582;2022-11-25T11:09:38;17.10;57.90
71237;DHT22;58984;51.960;5.582;2022-11-25T11:12:25;17.20;57.90
71237;DHT22;58984;51.960;5.582;2022-11-25T11:14:53;17.20;58.00
71237;DHT22;58984;51.960;5.582;2022-11-25T11:17:29;17.40;57.90
71237;DHT22;58984;51.960;5.582;2022-11-25T11:20:22;17.30;57.90
71237;DHT22;58984;51.960;5.582;2022-11-25T11:23:00;17.40;58.00
71237;DHT22;58984;51.960;5.582;2022-11-25T11:25:32;17.50;57.80
71237;DHT22;58984;51.960;5.582;2022-11-25T11:27:59;17.60;58.00
71237;DHT22;58984;51.960;5.582;2022-11-25T11:30:27;17.70;58.10
71237;DHT22;58984;51.960;5.582;2022-11-25T11:33:05;17.70;58.10
71237;DHT22;58984;51.960;5.582;2022-11-25T11:36:00;17.70;58.10
71237;DHT22;58984;51.960;5.582;2022-11-25T11:38:34;17.80;58.10
71237;DHT22;58984;51.960;5.582;2022-11-25T11:41:14;18.00;58.20
71237;DHT22;58984;51.960;5.582;2022-11-25T11:43:54;18.00;58.10
71237;DHT22;58984;51.960;5.582;2022-11-25T11:46:35;18.00;58.10
71237;DHT22;58984;51.960;5.582;2022-11-25T11:49:31;18.10;58.10
71237;DHT22;58984;51.960;5.582;2022-11-25T11:52:28;18.10;58.20
71237;DHT22;58984;51.960;5.582;2022-11-25T11:55:03;18.20;58.10
71237;DHT22;58984;51.960;5.582;2022-11-25T12:00:16;18.40;58.30
71237;DHT22;58984;51.960;5.582;2022-11-25T12:03:02;18.40;58.40
71237;DHT22;58984;51.960;5.582;2022-11-25T12:05:33;18.40;58.40
71237;DHT22;58984;51.960;5.582;2022-11-25T12:16:06;18.60;58.00
71237;DHT22;58984;51.960;5.582;2022-11-25T12:21:09;18.80;56.70
71237;DHT22;58984;51.960;5.582;2022-11-25T12:23:47;18.90;55.40
71237;DHT22;58984;51.960;5.582;2022-11-25T12:29:23;19.10;55.10
71237;DHT22;58984;51.960;5.582;2022-11-25T12:31:54;19.20;56.10
71237;DHT22;58984;51.960;5.582;2022-11-25T12:34:43;19.20;56.20
71237;DHT22;58984;51.960;5.582;2022-11-25T12:37:22;19.30;56.40
71237;DHT22;58984;51.960;5.582;2022-11-25T12:40:15;19.50;56.40
71237;DHT22;58984;51.960;5.582;2022-11-25T12:42:43;19.40;56.20
71237;DHT22;58984;51.960;5.582;2022-11-25T12:45:22;19.50;56.20
71237;DHT22;58984;51.960;5.582;2022-11-25T12:47:48;19.50;56.40
71237;DHT22;58984;51.960;5.582;2022-11-25T12:50:21;19.60;56.50
71237;DHT22;58984;51.960;5.582;2022-11-25T12:55:25;19.70;56.60
71237;DHT22;58984;51.960;5.582;2022-11-25T13:09:09;19.80;56.40
71237;DHT22;58984;51.960;5.582;2022-11-25T13:14:24;19.80;56.30
71237;DHT22;58984;51.960;5.582;2022-11-25T13:16:52;19.80;56.30
71237;DHT22;58984;51.960;5.582;2022-11-25T13:19:19;19.70;56.20
71237;DHT22;58984;51.960;5.582;2022-11-25T13:22:02;19.70;56.30
71237;DHT22;58984;51.960;5.582;2022-11-25T13:24:39;19.60;56.30
71237;DHT22;58984;51.960;5.582;2022-11-25T13:29:54;19.60;56.40
71237;DHT22;58984;51.960;5.582;2022-11-25T13:32:26;19.60;55.90
71237;DHT22;58984;51.960;5.582;2022-11-25T13:35:25;19.50;56.00
71237;DHT22;58984;51.960;5.582;2022-11-25T13:37:37;19.70;56.20
71237;DHT22;58984;51.960;5.582;2022-11-25T13:40:33;19.60;55.70
71237;DHT22;58984;51.960;5.582;2022-11-25T13:43:00;19.50;56.10
71237;DHT22;58984;51.960;5.582;2022-11-25T13:45:42;19.50;56.00
71237;DHT22;58984;51.960;5.582;2022-11-25T13:48:23;19.30;56.00
71237;DHT22;58984;51.960;5.582;2022-11-25T13:51:03;19.30;56.10
71237;DHT22;58984;51.960;5.582;2022-11-25T13:53:37;19.30;56.00
71237;DHT22;58984;51.960;5.582;2022-11-25T13:56:36;19.30;56.00
71237;DHT22;58984;51.960;5.582;2022-11-25T14:04:12;19.10;55.90
71237;DHT22;58984;51.960;5.582;2022-11-25T14:06:50;19.20;56.10
71237;DHT22;58984;51.960;5.582;2022-11-25T14:12:26;19.10;56.00
71237;DHT22;58984;51.960;5.582;2022-11-25T14:25:51;19.00;56.00
71237;DHT22;58984;51.960;5.582;2022-11-25T14:30:46;19.00;56.00
71237;DHT22;58984;51.960;5.582;2022-11-25T14:33:17;19.00;56.00
71237;DHT22;58984;51.960;5.582;2022-11-25T14:35:50;19.00;56.00
71237;DHT22;58984;51.960;5.582;2022-11-25T14:38:22;18.90;55.90
71237;DHT22;58984;51.960;5.582;2022-11-25T14:40:57;18.90;55.90
71237;DHT22;58984;51.960;5.582;2022-11-25T14:43:26;18.90;55.90
71237;DHT22;58984;51.960;5.582;2022-11-25T14:46:13;18.80;56.10
71237;DHT22;58984;51.960;5.582;2022-11-25T14:48:40;18.80;55.90
71237;DHT22;58984;51.960;5.582;2022-11-25T14:51:10;18.80;55.80
71237;DHT22;58984;51.960;5.582;2022-11-25T14:53:41;18.80;55.80
71237;DHT22;58984;51.960;5.582;2022-11-25T14:56:07;18.70;55.80
71237;DHT22;58984;51.960;5.582;2022-11-25T14:58:33;18.70;55.70
71237;DHT22;58984;51.960;5.582;2022-11-25T15:01:23;18.70;55.80
71237;DHT22;58984;51.960;5.582;2022-11-25T15:03:54;18.60;55.90
71237;DHT22;58984;51.960;5.582;2022-11-25T15:06:31;18.60;55.70
71237;DHT22;58984;51.960;5.582;2022-11-25T15:08:57;18.60;55.80
71237;DHT22;58984;51.960;5.582;2022-11-25T15:11:26;18.50;55.70
71237;DHT22;58984;51.960;5.582;2022-11-25T15:13:59;18.50;55.80
71237;DHT22;58984;51.960;5.582;2022-11-25T15:16:39;18.40;55.70
71237;DHT22;58984;51.960;5.582;2022-11-25T15:19:15;18.40;55.80
71237;DHT22;58984;51.960;5.582;2022-11-25T15:21:42;18.30;55.60
71237;DHT22;58984;51.960;5.582;2022-11-25T15:24:23;18.40;55.70
71237;DHT22;58984;51.960;5.582;2022-11-25T15:26:51;18.30;55.70
71237;DHT22;58984;51.960;5.582;2022-11-25T15:29:17;18.30;55.60
71237;DHT22;58984;51.960;5.582;2022-11-25T15:31:44;18.30;55.70
71237;DHT22;58984;51.960;5.582;2022-11-25T15:34:12;18.20;55.60
71237;DHT22;58984;51.960;5.582;2022-11-25T15:36:39;18.10;55.60
71237;DHT22;58984;51.960;5.582;2022-11-25T15:41:49;18.00;55.50
71237;DHT22;58984;51.960;5.582;2022-11-25T15:44:24;18.10;55.60
71237;DHT22;58984;51.960;5.582;2022-11-25T15:46:56;18.00;56.10
71237;DHT22;58984;51.960;5.582;2022-11-25T15:49:23;18.00;55.50
71237;DHT22;58984;51.960;5.582;2022-11-25T15:52:03;18.00;55.60
71237;DHT22;58984;51.960;5.582;2022-11-25T15:54:37;17.90;55.60
71237;DHT22;58984;51.960;5.582;2022-11-25T16:13:29;17.70;55.70
71237;DHT22;58984;51.960;5.582;2022-11-25T16:19:09;17.70;55.70
71237;DHT22;58984;51.960;5.582;2022-11-25T16:26:50;17.60;55.80
71237;DHT22;58984;51.960;5.582;2022-11-25T16:29:19;17.50;55.90
71237;DHT22;58984;51.960;5.582;2022-11-25T16:31:46;17.50;55.80
71237;DHT22;58984;51.960;5.582;2022-11-25T16:34:17;17.50;55.90
71237;DHT22;58984;51.960;5.582;2022-11-25T16:36:43;17.50;55.90
71237;DHT22;58984;51.960;5.582;2022-11-25T16:39:08;17.50;56.50
71237;DHT22;58984;51.960;5.582;2022-11-25T16:41:35;17.50;55.90
71237;DHT22;58984;51.960;5.582;2022-11-25T16:44:04;17.50;55.90
71237;DHT22;58984;51.960;5.582;2022-11-25T16:46:36;17.40;55.80
71237;DHT22;58984;51.960;5.582;2022-11-25T16:49:07;17.40;55.80
71237;DHT22;58984;51.960;5.582;2022-11-25T16:51:35;17.40;55.90
71237;DHT22;58984;51.960;5.582;2022-11-25T16:54:01;17.40;55.80
71237;DHT22;58984;51.960;5.582;2022-11-25T16:56:27;17.30;55.70
71237;DHT22;58984;51.960;5.582;2022-11-25T16:58:54;17.30;55.70
71237;DHT22;58984;51.960;5.582;2022-11-25T17:01:22;17.30;55.70
71237;DHT22;58984;51.960;5.582;2022-11-25T17:03:49;17.30;55.80
71237;DHT22;58984;51.960;5.582;2022-11-25T17:06:17;17.30;55.70
71237;DHT22;58984;51.960;5.582;2022-11-25T17:08:43;17.20;55.70
71237;DHT22;58984;51.960;5.582;2022-11-25T17:11:25;17.20;55.70
71237;DHT22;58984;51.960;5.582;2022-11-25T17:13:52;17.10;55.60
71237;DHT22;58984;51.960;5.582;2022-11-25T17:16:24;17.20;55.60
71237;DHT22;58984;51.960;5.582;2022-11-25T17:18:52;17.10;55.60
71237;DHT22;58984;51.960;5.582;2022-11-25T17:21:18;17.10;55.60
71237;DHT22;58984;51.960;5.582;2022-11-25T17:23:45;17.10;55.60
71237;DHT22;58984;51.960;5.582;2022-11-25T17:26:25;17.10;55.60
71237;DHT22;58984;51.960;5.582;2022-11-25T17:28:57;17.00;55.50
71237;DHT22;58984;51.960;5.582;2022-11-25T17:31:25;17.00;55.50
71237;DHT22;58984;51.960;5.582;2022-11-25T17:33:52;17.00;55.50
71237;DHT22;58984;51.960;5.582;2022-11-25T17:36:18;17.00;55.50
71237;DHT22;58984;51.960;5.582;2022-11-25T17:38:43;17.00;55.50
71237;DHT22;58984;51.960;5.582;2022-11-25T17:41:20;16.90;55.40
71237;DHT22;58984;51.960;5.582;2022-11-25T17:43:48;16.90;55.40
71237;DHT22;58984;51.960;5.582;2022-11-25T17:46:16;16.90;55.40
71237;DHT22;58984;51.960;5.582;2022-11-25T17:48:42;16.90;55.40
71237;DHT22;58984;51.960;5.582;2022-11-25T17:51:10;16.90;55.40
71237;DHT22;58984;51.960;5.582;2022-11-25T17:53:37;16.80;55.30